createdAt,value
2018-07-05T00:00:23.479Z,75.34
2018-07-05T00:01:16.692Z,75.79
2018-07-05T00:02:18.680Z,75.88
2018-07-05T00:03:16.645Z,76.17
2018-07-05T00:04:21.475Z,76.17
2018-07-05T00:05:16.627Z,76.26
2018-07-05T00:06:18.605Z,76.75
2018-07-05T00:07:16.561Z,76.46
2018-07-05T00:08:17.547Z,76.75
2018-07-05T00:09:16.521Z,76.65
2018-07-05T00:10:17.611Z,76.46
2018-07-05T00:11:16.470Z,76.75
2018-07-05T00:12:17.519Z,77.13
2018-07-05T00:13:16.449Z,77.13
2018-07-05T00:14:17.460Z,76.84
2018-07-05T00:15:16.393Z,76.84
2018-07-05T00:16:16.422Z,76.65
2018-07-05T00:17:16.366Z,76.65
2018-07-05T00:18:41.012Z,76.84
2018-07-05T00:19:16.298Z,76.56
2018-07-05T00:20:17.366Z,77.42
2018-07-05T00:21:16.255Z,77.42
2018-07-05T00:22:16.255Z,77.51
2018-07-05T00:23:16.221Z,77.61
2018-07-05T00:24:28.974Z,77.90
2018-07-05T00:25:16.184Z,77.90
2018-07-05T00:26:26.934Z,78.00
2018-07-05T00:27:16.133Z,78.00
2018-07-05T00:28:26.941Z,78.19
2018-07-05T00:29:16.094Z,78.96
2018-07-05T00:30:16.100Z,78.67
2018-07-05T00:31:16.052Z,78.86
2018-07-05T00:32:20.929Z,79.15
2018-07-05T00:33:16.007Z,78.77
2018-07-05T00:34:26.983Z,79.73
2018-07-05T00:35:15.958Z,79.53
2018-07-05T00:36:23.007Z,79.82
2018-07-05T00:37:15.927Z,80.02
2018-07-05T00:38:17.998Z,80.02
2018-07-05T00:39:15.872Z,79.82
2018-07-05T00:40:26.513Z,80.50
2018-07-05T00:41:15.837Z,80.40
2018-07-05T00:42:36.892Z,80.30
2018-07-05T00:43:15.780Z,80.21
2018-07-05T00:44:15.782Z,80.21
2018-07-05T00:45:15.749Z,80.30
2018-07-05T00:46:30.442Z,80.65
2018-07-05T00:47:15.703Z,80.84
2018-07-05T00:48:21.438Z,80.94
2018-07-05T00:49:15.656Z,80.75
2018-07-05T00:50:21.464Z,81.81
2018-07-05T00:51:15.629Z,81.81
2018-07-05T00:52:15.637Z,81.90
2018-07-05T00:53:15.581Z,82.19
2018-07-05T00:54:20.455Z,81.81
2018-07-05T00:55:15.530Z,82.38
2018-07-05T00:56:16.586Z,82.48
2018-07-05T00:57:15.480Z,82.76
2018-07-05T00:58:15.576Z,83.06
2018-07-05T00:59:15.441Z,83.69
2018-07-05T01:00:21.527Z,83.44
2018-07-05T01:01:15.405Z,83.30
2018-07-05T01:02:21.024Z,84.26
2018-07-05T01:03:15.359Z,84.17
2018-07-05T01:04:17.454Z,83.97
2018-07-05T01:05:15.316Z,84.07
2018-07-05T01:06:15.316Z,84.84
2018-07-05T01:07:15.284Z,84.36
2018-07-05T01:08:17.287Z,84.74
2018-07-05T01:09:15.231Z,84.17
2018-07-05T01:10:15.241Z,84.84
2018-07-05T01:11:15.186Z,85.13
2018-07-05T01:12:16.281Z,85.32
2018-07-05T01:13:15.550Z,85.51
2018-07-05T01:14:26.937Z,85.32
2018-07-05T01:15:15.101Z,85.03
2018-07-05T01:16:16.102Z,85.61
2018-07-05T01:17:15.059Z,85.71
2018-07-05T01:18:17.137Z,86.18
2018-07-05T01:19:15.013Z,86.38
2018-07-05T01:20:25.957Z,86.28
2018-07-05T01:21:14.984Z,86.47
2018-07-05T01:22:17.060Z,86.47
2018-07-05T01:23:14.928Z,86.47
2018-07-05T01:24:15.944Z,86.38
2018-07-05T01:25:14.891Z,86.95
2018-07-05T01:26:19.440Z,86.81
2018-07-05T01:27:14.843Z,86.66
2018-07-05T01:28:14.836Z,87.39
2018-07-05T01:29:14.807Z,87.72
2018-07-05T01:30:36.873Z,87.58
2018-07-05T01:31:14.752Z,88.06
2018-07-05T01:32:14.736Z,87.87
2018-07-05T01:33:15.800Z,88.06
2018-07-05T01:34:14.690Z,87.68
2018-07-05T01:35:16.731Z,88.16
2018-07-05T01:36:14.646Z,88.16
2018-07-05T01:37:19.511Z,88.45
2018-07-05T01:38:14.607Z,88.93
2018-07-05T01:39:20.445Z,89.31
2018-07-05T01:40:14.573Z,89.22
2018-07-05T01:41:25.478Z,89.02
2018-07-05T01:42:14.532Z,88.83
2018-07-05T01:43:14.532Z,89.60
2018-07-05T01:44:14.472Z,89.02
2018-07-05T01:45:21.512Z,89.89
2018-07-05T01:46:14.429Z,90.08
2018-07-05T01:47:14.457Z,90.08
2018-07-05T01:48:14.392Z,90.37
2018-07-05T01:49:18.976Z,90.17
2018-07-05T01:50:14.340Z,90.46
2018-07-05T01:51:16.428Z,90.75
2018-07-05T01:52:14.306Z,90.70
2018-07-05T01:53:20.941Z,90.90
2018-07-05T01:54:14.254Z,90.61
2018-07-05T01:55:14.299Z,91.19
2018-07-05T01:56:14.211Z,91.28
2018-07-05T01:57:15.241Z,91.09
2018-07-05T01:58:14.171Z,90.75
2018-07-05T01:59:35.217Z,90.80
2018-07-05T02:00:14.124Z,90.52
2018-07-05T02:01:14.106Z,90.80
2018-07-05T02:02:15.165Z,91.19
2018-07-05T02:03:14.067Z,91.04
2018-07-05T02:04:14.075Z,91.09
2018-07-05T02:05:15.089Z,90.99
2018-07-05T02:06:14.003Z,91.38
2018-07-05T02:07:14.078Z,91.86
2018-07-05T02:08:13.946Z,91.66
2018-07-05T02:09:13.988Z,91.28
2018-07-05T02:10:13.906Z,92.24
2018-07-05T02:11:24.549Z,91.96
2018-07-05T02:12:13.864Z,91.96
2018-07-05T02:13:25.499Z,92.72
2018-07-05T02:14:13.821Z,92.33
2018-07-05T02:15:18.535Z,92.72
2018-07-05T02:16:13.800Z,93.01
2018-07-05T02:17:13.841Z,93.10
2018-07-05T02:18:13.759Z,92.72
2018-07-05T02:19:45.492Z,93.59
2018-07-05T02:20:13.696Z,93.39
2018-07-05T02:21:14.778Z,93.59
2018-07-05T02:22:13.657Z,93.59
2018-07-05T02:23:13.624Z,93.68
2018-07-05T02:24:13.671Z,93.87
2018-07-05T02:25:13.585Z,94.35
2018-07-05T02:26:15.630Z,93.82
2018-07-05T02:27:13.539Z,94.45
2018-07-05T02:28:20.457Z,93.82
2018-07-05T02:29:13.497Z,94.31
2018-07-05T02:30:19.551Z,94.12
2018-07-05T02:31:13.446Z,94.59
2018-07-05T02:32:14.556Z,95.07
2018-07-05T02:33:13.410Z,95.17
2018-07-05T02:34:14.456Z,94.98
2018-07-05T02:35:13.384Z,94.88
2018-07-05T02:36:14.363Z,95.07
2018-07-05T02:37:13.328Z,94.59
2018-07-05T02:38:18.983Z,93.92
2018-07-05T02:39:13.273Z,94.59
2018-07-05T02:40:20.019Z,94.31
2018-07-05T02:41:13.229Z,94.69
2018-07-05T02:42:24.066Z,94.98
2018-07-05T02:43:13.181Z,95.17
2018-07-05T02:44:13.191Z,94.88
2018-07-05T02:45:13.141Z,95.07
2018-07-05T02:46:14.218Z,95.46
2018-07-05T02:47:13.109Z,95.07
2018-07-05T02:48:24.988Z,95.07
2018-07-05T02:49:13.051Z,94.31
2018-07-05T02:50:13.122Z,94.98
2018-07-05T02:51:13.005Z,95.36
2018-07-05T02:52:15.002Z,95.94
2018-07-05T02:53:12.963Z,95.94
2018-07-05T02:54:18.454Z,96.13
2018-07-05T02:55:12.931Z,96.03
2018-07-05T02:56:14.904Z,96.42
2018-07-05T02:57:12.878Z,96.80
2018-07-05T02:58:18.457Z,97.28
2018-07-05T02:59:12.834Z,96.61
2018-07-05T03:00:13.825Z,96.22
2018-07-05T03:01:12.793Z,96.80
2018-07-05T03:02:28.450Z,97.47
2018-07-05T03:03:12.745Z,97.09
2018-07-05T03:04:13.741Z,96.99
2018-07-05T03:05:12.710Z,97.47
2018-07-05T03:06:12.709Z,97.09
2018-07-05T03:07:12.657Z,97.38
2018-07-05T03:08:13.747Z,97.14
2018-07-05T03:09:12.611Z,97.09
2018-07-05T03:10:13.660Z,97.14
2018-07-05T03:11:12.576Z,97.19
2018-07-05T03:12:13.568Z,96.89
2018-07-05T03:13:12.520Z,96.80
2018-07-05T03:14:33.519Z,96.94
2018-07-05T03:15:12.475Z,96.22
2018-07-05T03:16:13.498Z,95.84
2018-07-05T03:17:12.438Z,96.32
2018-07-05T03:18:23.031Z,95.55
2018-07-05T03:19:12.401Z,95.84
2018-07-05T03:20:19.059Z,96.03
2018-07-05T03:21:12.347Z,96.13
2018-07-05T03:22:17.025Z,96.13
2018-07-05T03:23:12.309Z,95.55
2018-07-05T03:24:12.317Z,95.36
2018-07-05T03:25:12.268Z,95.75
2018-07-05T03:26:18.067Z,96.03
2018-07-05T03:27:12.226Z,95.75
2018-07-05T03:28:12.242Z,96.22
2018-07-05T03:29:12.174Z,96.70
2018-07-05T03:30:23.006Z,96.89
2018-07-05T03:31:12.127Z,96.22
2018-07-05T03:32:27.011Z,96.42
2018-07-05T03:33:12.083Z,96.51
2018-07-05T03:34:23.032Z,96.89
2018-07-05T03:35:12.038Z,96.80
2018-07-05T03:36:12.088Z,96.61
2018-07-05T03:37:12.016Z,97.19
2018-07-05T03:38:13.045Z,96.42
2018-07-05T03:39:11.980Z,96.51
2018-07-05T03:40:13.035Z,96.80
2018-07-05T03:41:11.916Z,96.80
2018-07-05T03:42:12.945Z,96.70
2018-07-05T03:43:11.866Z,96.80
2018-07-05T03:44:11.932Z,97.19
2018-07-05T03:45:11.824Z,96.61
2018-07-05T03:46:12.876Z,96.80
2018-07-05T03:47:11.792Z,96.89
2018-07-05T03:48:27.534Z,96.70
2018-07-05T03:49:11.730Z,96.42
2018-07-05T03:50:12.795Z,95.84
2018-07-05T03:51:11.689Z,95.46
2018-07-05T03:52:12.700Z,96.32
2018-07-05T03:53:11.651Z,96.22
2018-07-05T03:54:13.742Z,96.03
2018-07-05T03:55:11.595Z,95.75
2018-07-05T03:56:35.566Z,95.84
2018-07-05T03:57:11.583Z,95.75
2018-07-05T03:58:11.533Z,95.26
2018-07-05T03:59:11.623Z,95.07
2018-07-05T04:00:11.490Z,95.31
2018-07-05T04:01:12.559Z,95.46
2018-07-05T04:02:11.441Z,95.21
2018-07-05T04:03:17.080Z,95.75
2018-07-05T04:04:11.411Z,95.46
2018-07-05T04:05:23.044Z,95.94
2018-07-05T04:06:11.358Z,95.75
2018-07-05T04:07:11.371Z,95.46
2018-07-05T04:08:11.334Z,95.26
2018-07-05T04:09:13.329Z,95.31
2018-07-05T04:10:11.303Z,95.31
2018-07-05T04:11:12.323Z,94.79
2018-07-05T04:12:11.229Z,95.41
2018-07-05T04:13:16.013Z,95.60
2018-07-05T04:14:11.187Z,95.12
2018-07-05T04:15:11.216Z,94.35
2018-07-05T04:16:11.147Z,94.64
2018-07-05T04:17:13.177Z,94.45
2018-07-05T04:18:11.109Z,94.45
2018-07-05T04:19:17.089Z,94.54
2018-07-05T04:20:11.103Z,95.17
2018-07-05T04:21:26.011Z,94.98
2018-07-05T04:22:11.013Z,94.93
2018-07-05T04:23:13.009Z,95.17
2018-07-05T04:24:10.966Z,95.03
2018-07-05T04:25:15.478Z,95.12
2018-07-05T04:26:10.916Z,95.21
2018-07-05T04:27:11.918Z,95.17
2018-07-05T04:28:10.895Z,95.03
2018-07-05T04:29:10.914Z,94.93
2018-07-05T04:30:10.825Z,95.12
2018-07-05T04:31:15.521Z,95.55
2018-07-05T04:32:10.780Z,96.03
2018-07-05T04:33:12.872Z,95.75
2018-07-05T04:34:10.783Z,96.32
2018-07-05T04:35:10.737Z,96.32
2018-07-05T04:36:10.699Z,95.84
2018-07-05T04:37:17.500Z,95.26
2018-07-05T04:38:10.681Z,95.55
2018-07-05T04:39:11.679Z,95.46
2018-07-05T04:40:10.596Z,95.36
2018-07-05T04:41:16.675Z,95.75
2018-07-05T04:42:10.553Z,95.26
2018-07-05T04:43:15.589Z,96.03
2018-07-05T04:44:10.540Z,95.98
2018-07-05T04:45:10.670Z,95.50
2018-07-05T04:46:10.494Z,95.21
2018-07-05T04:47:21.061Z,95.70
2018-07-05T04:48:10.442Z,95.31
2018-07-05T04:57:51.311Z,94.16
2018-07-05T04:58:49.795Z,94.31
2018-07-05T04:59:49.696Z,94.07
2018-07-05T05:00:49.700Z,93.63
2018-07-05T05:01:49.656Z,93.82
2018-07-05T05:02:49.623Z,92.96
2018-07-05T05:03:49.723Z,92.86
2018-07-05T05:04:49.607Z,92.57
2018-07-05T05:05:49.639Z,92.86
2018-07-05T05:06:49.543Z,92.14
2018-07-05T05:07:49.541Z,91.66
2018-07-05T05:08:49.551Z,91.18
2018-07-05T05:09:49.577Z,91.08
2018-07-05T05:10:49.450Z,90.70
2018-07-05T05:11:49.478Z,90.41
2018-07-05T05:12:49.408Z,90.41
2018-07-05T05:13:50.407Z,90.12
2018-07-05T05:14:49.409Z,89.93
2018-07-05T05:15:49.396Z,89.64
2018-07-05T05:16:49.332Z,89.54
2018-07-05T05:17:49.409Z,89.16
2018-07-05T05:18:49.343Z,89.21
2018-07-05T05:19:49.313Z,89.50
2018-07-05T05:20:49.228Z,89.78
2018-07-05T05:21:49.235Z,89.07
2018-07-05T05:22:49.190Z,89.93
2018-07-05T05:23:49.238Z,90.03
2018-07-05T05:24:49.138Z,90.03
2018-07-05T05:25:49.148Z,90.12
2018-07-05T05:26:49.098Z,90.31
2018-07-05T05:27:49.159Z,90.99
2018-07-05T05:28:49.050Z,91.18
2018-07-05T05:29:49.116Z,91.33
2018-07-05T05:30:49.017Z,92.00
2018-07-05T05:31:50.809Z,92.77
2018-07-05T05:32:51.824Z,92.67
2018-07-05T05:33:48.937Z,92.77
2018-07-05T05:34:50.859Z,92.67
2018-07-05T05:35:51.817Z,92.67
2018-07-05T05:36:48.869Z,92.14
2018-07-05T05:37:48.876Z,91.95
2018-07-05T05:38:51.811Z,92.33
2018-07-05T05:39:56.316Z,91.75
2018-07-05T05:40:50.310Z,91.85
2018-07-05T05:41:48.761Z,90.70
2018-07-05T05:42:53.366Z,91.28
2018-07-05T05:43:48.733Z,91.18
2018-07-05T05:44:49.785Z,90.80
2018-07-05T05:45:48.668Z,90.89
2018-07-05T05:46:50.723Z,90.99
2018-07-05T05:47:48.639Z,90.60
2018-07-05T05:48:53.388Z,91.08
2018-07-05T05:49:48.582Z,90.41
2018-07-05T05:50:48.590Z,90.70
2018-07-05T05:51:48.557Z,90.31
2018-07-05T05:52:48.609Z,90.31
2018-07-05T05:53:48.497Z,90.60
2018-07-05T05:54:53.431Z,90.80
2018-07-05T05:55:48.463Z,90.17
2018-07-05T05:56:50.489Z,89.69
2018-07-05T05:57:48.413Z,89.40
2018-07-05T05:58:49.468Z,89.30
2018-07-05T05:59:48.359Z,89.11
2018-07-05T06:00:48.348Z,89.30
2018-07-05T06:01:48.367Z,89.30
2018-07-05T06:02:49.386Z,89.01
2018-07-05T06:03:48.269Z,89.30
2018-07-05T06:04:52.880Z,88.92
2018-07-05T06:05:48.236Z,88.92
2018-07-05T06:06:50.230Z,88.82
2018-07-05T06:07:48.188Z,89.21
2018-07-05T06:08:48.199Z,88.29
2018-07-05T06:09:48.154Z,88.10
2018-07-05T06:10:50.152Z,88.39
2018-07-05T06:11:48.122Z,88.29
2018-07-05T06:12:50.173Z,87.90
2018-07-05T06:13:48.055Z,87.90
2018-07-05T06:14:48.142Z,88.00
2018-07-05T06:15:48.008Z,88.00
2018-07-05T06:16:48.061Z,87.62
2018-07-05T06:17:47.961Z,87.13
2018-07-05T06:18:54.930Z,86.79
2018-07-05T06:19:47.934Z,86.31
2018-07-05T06:20:47.970Z,86.41
2018-07-05T06:21:47.867Z,86.41
2018-07-05T06:22:48.902Z,85.54
2018-07-05T06:23:47.830Z,85.54
2018-07-05T06:24:49.836Z,85.44
2018-07-05T06:25:47.776Z,84.87
2018-07-05T06:26:58.365Z,85.00
2018-07-05T06:27:47.756Z,84.53
2018-07-05T06:28:48.919Z,84.23
2018-07-05T06:29:47.708Z,84.43
2018-07-05T06:30:47.750Z,84.14
2018-07-05T06:31:47.680Z,83.66
2018-07-05T06:32:47.737Z,84.23
2018-07-05T06:33:47.605Z,84.53
2018-07-05T06:34:47.677Z,84.43
2018-07-05T06:35:47.566Z,83.85
2018-07-05T06:36:49.608Z,83.85
2018-07-05T06:37:47.531Z,83.75
2018-07-05T06:38:47.573Z,84.33
2018-07-05T06:39:47.477Z,83.51
2018-07-05T06:40:47.488Z,83.12
2018-07-05T06:41:47.441Z,82.64
2018-07-05T06:42:47.502Z,82.64
2018-07-05T06:43:47.393Z,82.26
2018-07-05T06:44:47.406Z,81.96
2018-07-05T06:45:47.353Z,81.96
2018-07-05T06:46:47.425Z,82.26
2018-07-05T06:47:47.300Z,81.33
2018-07-05T06:48:47.365Z,81.48
2018-07-05T06:49:47.258Z,81.96
2018-07-05T06:50:48.265Z,81.52
2018-07-05T06:51:47.218Z,81.14
2018-07-05T06:52:47.266Z,80.85
2018-07-05T06:53:47.171Z,81.33
2018-07-05T06:54:47.167Z,81.04
2018-07-05T06:55:47.132Z,80.85
2018-07-05T06:56:47.196Z,80.76
2018-07-05T06:57:47.093Z,80.66
2018-07-05T06:58:47.119Z,80.33
2018-07-05T06:59:47.054Z,80.85
2018-07-05T07:00:47.109Z,81.14
2018-07-05T07:01:46.992Z,80.37
2018-07-05T07:03:32.702Z,80.18
2018-07-05T07:04:32.694Z,80.37
2018-07-05T07:05:32.614Z,80.51
2018-07-05T07:06:32.638Z,79.79
2018-07-05T07:07:32.566Z,80.02
2018-07-05T07:08:32.617Z,79.35
2018-07-05T07:09:32.515Z,78.67
2018-07-05T07:10:32.516Z,78.48
2018-07-05T07:11:32.488Z,77.61
2018-07-05T07:12:32.545Z,77.26
2018-07-05T07:13:32.445Z,77.81
2018-07-05T07:14:32.452Z,77.71
2018-07-05T07:15:32.404Z,78.00
2018-07-05T07:16:32.465Z,78.19
2018-07-05T07:17:32.342Z,78.58
2018-07-05T07:18:32.377Z,78.96
2018-07-05T07:19:32.301Z,78.67
2018-07-05T07:20:34.329Z,79.16
2018-07-05T07:21:32.262Z,79.54
2018-07-05T07:22:32.297Z,79.25
2018-07-05T07:23:32.206Z,78.58
2018-07-05T07:24:34.251Z,77.81
2018-07-05T07:25:32.161Z,77.90
2018-07-05T07:26:33.243Z,77.61
2018-07-05T07:27:32.114Z,77.46
2018-07-05T07:28:32.133Z,76.98
2018-07-05T07:29:32.093Z,78.61
2018-07-05T07:30:48.730Z,78.61
2018-07-05T07:31:32.032Z,77.17
2018-07-05T07:32:32.004Z,76.88
2018-07-05T07:33:32.053Z,76.78
2018-07-05T07:34:31.966Z,77.17
2018-07-05T07:35:31.974Z,76.43
2018-07-05T07:36:31.915Z,77.21
2018-07-05T07:37:32.025Z,77.50
2018-07-05T07:38:31.888Z,75.09
2018-07-05T07:39:33.934Z,75.47
2018-07-05T07:40:31.828Z,75.76
2018-07-05T07:41:31.906Z,76.34
2018-07-05T07:42:31.789Z,76.34
2018-07-05T07:43:31.774Z,75.47
2018-07-05T07:44:31.739Z,75.57
2018-07-05T07:45:31.966Z,75.37
2018-07-05T07:46:31.695Z,75.18
2018-07-05T07:47:31.733Z,75.57
2018-07-05T07:48:31.645Z,75.37
2018-07-05T07:49:31.645Z,74.99
2018-07-05T07:50:31.603Z,74.60
2018-07-05T07:51:36.272Z,74.02
2018-07-05T07:52:31.571Z,74.31
2018-07-05T07:53:31.672Z,74.31
2018-07-05T07:54:31.802Z,75.57
2018-07-05T07:55:34.026Z,77.05
2018-07-05T07:56:31.568Z,74.83
2018-07-05T07:57:31.498Z,74.44
2018-07-05T07:58:31.450Z,74.64
2018-07-05T07:59:31.563Z,74.54
2018-07-05T08:00:31.382Z,74.73
2018-07-05T08:01:31.522Z,74.16
2018-07-05T08:02:31.334Z,74.25
2018-07-05T08:03:31.316Z,73.77
2018-07-05T08:04:31.301Z,73.96
2018-07-05T08:05:31.339Z,72.74
2018-07-05T08:06:31.243Z,72.55
2018-07-05T08:07:31.249Z,72.94
2018-07-05T08:08:31.223Z,72.74
2018-07-05T08:09:31.263Z,71.58
2018-07-05T08:10:31.163Z,71.48
2018-07-05T08:11:31.175Z,71.48
2018-07-05T08:12:31.115Z,70.62
2018-07-05T08:13:31.186Z,71.39
2018-07-05T08:14:31.087Z,71.48
2018-07-05T08:15:31.134Z,71.30
2018-07-05T08:16:31.045Z,71.48
2018-07-05T08:17:31.125Z,71.58
2018-07-05T08:18:30.978Z,71.48
2018-07-05T08:19:31.027Z,71.68
2018-07-05T08:20:30.973Z,71.58
2018-07-05T08:21:30.936Z,72.13
2018-07-05T08:22:30.888Z,72.26
2018-07-05T08:23:31.009Z,72.22
2018-07-05T08:24:30.855Z,72.45
2018-07-05T08:25:30.868Z,72.74
2018-07-05T08:26:30.805Z,72.74
2018-07-05T08:27:30.872Z,72.36
2018-07-05T08:28:30.749Z,72.64
2018-07-05T08:29:30.784Z,71.78
2018-07-05T08:30:30.720Z,72.45
2018-07-05T08:31:31.810Z,73.13
2018-07-05T08:32:30.681Z,73.80
2018-07-05T08:33:30.701Z,73.71
2018-07-05T08:34:30.626Z,73.80
2018-07-05T08:35:31.642Z,74.00
2018-07-05T08:36:30.594Z,73.61
2018-07-05T08:37:30.621Z,73.13
2018-07-05T08:38:30.538Z,72.78
2018-07-05T08:39:30.556Z,72.00
2018-07-05T08:40:30.515Z,72.30
2018-07-05T08:41:30.548Z,71.72
2018-07-05T08:42:30.472Z,71.72
2018-07-05T08:43:30.461Z,71.66
2018-07-05T08:44:30.401Z,71.84
2018-07-05T08:45:30.473Z,71.56
2018-07-05T08:46:30.359Z,70.98
2018-07-05T08:47:30.383Z,70.30
2018-07-05T08:48:30.332Z,69.33
2018-07-05T08:49:30.400Z,69.27
2018-07-05T08:50:30.273Z,69.17
2018-07-05T08:51:32.353Z,68.88
2018-07-05T08:52:30.228Z,68.79
2018-07-05T08:53:30.218Z,68.69
2018-07-05T08:54:30.189Z,68.69
2018-07-05T08:55:30.238Z,68.59
2018-07-05T08:56:30.137Z,68.59
2018-07-05T08:57:30.148Z,68.30
2018-07-05T08:58:30.101Z,68.49
2018-07-05T08:59:30.173Z,68.15
2018-07-05T09:00:30.052Z,67.43
2018-07-05T09:01:30.081Z,67.05
2018-07-05T09:02:30.010Z,67.91
2018-07-05T09:03:30.998Z,67.14
2018-07-05T09:04:29.960Z,67.27
2018-07-05T09:05:29.998Z,66.40
2018-07-05T09:06:30.052Z,66.30
2018-07-05T09:07:30.005Z,66.20
2018-07-05T09:08:29.880Z,66.40
2018-07-05T09:09:29.913Z,66.05
2018-07-05T09:10:29.856Z,66.05
2018-07-05T09:11:30.858Z,65.95
2018-07-05T09:12:29.787Z,65.66
2018-07-05T09:13:29.833Z,65.47
2018-07-05T09:14:29.758Z,65.66
2018-07-05T09:15:31.798Z,65.75
2018-07-05T09:16:29.722Z,64.92
2018-07-05T09:17:29.809Z,65.01
2018-07-05T09:18:29.740Z,65.01
2018-07-05T09:19:29.674Z,64.92
2018-07-05T09:20:29.625Z,65.01
2018-07-05T09:21:29.720Z,63.98
2018-07-05T09:22:29.570Z,63.59
2018-07-05T09:23:29.726Z,63.85
2018-07-05T09:24:29.546Z,63.65
2018-07-05T09:25:29.615Z,63.17
2018-07-05T09:26:29.500Z,63.65
2018-07-05T09:27:29.525Z,63.65
2018-07-05T09:28:29.495Z,62.69
2018-07-05T09:29:29.537Z,62.69
2018-07-05T09:30:29.417Z,62.79
2018-07-05T09:31:29.440Z,61.91
2018-07-05T09:32:29.365Z,61.94
2018-07-05T09:33:29.359Z,58.84
2018-07-05T09:34:29.336Z,56.71
2018-07-05T09:35:29.305Z,56.23
2018-07-05T09:36:29.279Z,56.61
2018-07-05T09:37:29.277Z,56.23
2018-07-05T09:38:29.237Z,56.41
2018-07-05T09:39:30.312Z,55.16
2018-07-05T09:40:29.216Z,55.26
2018-07-05T09:41:29.206Z,56.03
2018-07-05T09:42:29.147Z,55.54
2018-07-05T09:43:29.151Z,55.54
2018-07-05T09:44:29.115Z,55.64
2018-07-05T09:45:30.150Z,56.41
2018-07-05T09:46:29.068Z,60.32
2018-07-05T09:47:29.041Z,56.83
2018-07-05T09:48:29.021Z,55.47
2018-07-05T09:49:29.051Z,54.99
2018-07-05T09:50:28.973Z,54.31
2018-07-05T09:51:33.798Z,54.60
2018-07-05T09:52:29.051Z,54.21
2018-07-05T09:53:28.980Z,54.41
2018-07-05T09:55:16.133Z,54.92
2018-07-05T09:56:15.028Z,55.28
2018-07-05T09:57:15.033Z,55.28
2018-07-05T09:58:15.081Z,54.63
2018-07-05T09:59:14.966Z,53.92
2018-07-05T10:00:14.987Z,53.47
2018-07-05T10:01:14.908Z,54.63
2018-07-05T10:02:14.997Z,55.99
2018-07-05T10:03:14.857Z,55.43
2018-07-05T10:04:14.948Z,52.59
2018-07-05T10:05:14.815Z,52.33
2018-07-05T10:06:14.824Z,52.52
2018-07-05T10:07:14.773Z,52.59
2018-07-05T10:08:15.862Z,52.69
2018-07-05T10:09:14.730Z,52.59
2018-07-05T10:10:14.749Z,52.40
2018-07-05T10:11:14.689Z,54.24
2018-07-05T10:12:16.717Z,55.02
2018-07-05T10:13:14.788Z,55.60
2018-07-05T10:14:14.679Z,53.69
2018-07-05T10:15:14.612Z,52.81
2018-07-05T10:16:14.678Z,53.20
2018-07-05T10:17:14.569Z,53.20
2018-07-05T10:18:14.542Z,52.42
2018-07-05T10:19:14.524Z,52.84
2018-07-05T10:20:15.541Z,52.74
2018-07-05T10:21:14.485Z,51.84
2018-07-05T10:22:14.533Z,55.43
2018-07-05T10:23:14.438Z,55.43
2018-07-05T10:24:19.029Z,52.33
2018-07-05T10:25:14.396Z,52.30
2018-07-05T10:26:14.515Z,51.91
2018-07-05T10:27:14.377Z,52.11
2018-07-05T10:28:14.452Z,52.69
2018-07-05T10:29:14.314Z,52.40
2018-07-05T10:30:15.386Z,52.30
2018-07-05T10:31:14.287Z,53.08
2018-07-05T10:32:14.250Z,53.08
2018-07-05T10:33:14.235Z,53.30
2018-07-05T10:34:20.057Z,52.23
2018-07-05T10:35:14.205Z,51.06
2018-07-05T10:36:14.239Z,53.20
2018-07-05T10:37:14.152Z,53.81
2018-07-05T10:38:15.247Z,51.70
2018-07-05T10:39:14.112Z,50.70
2018-07-05T10:41:25.228Z,52.62
2018-07-05T10:42:29.914Z,52.42
2018-07-05T10:43:25.118Z,52.30
2018-07-05T10:44:25.208Z,52.56
2018-07-05T10:45:25.093Z,53.44
2018-07-05T10:46:27.175Z,53.92
2018-07-05T10:47:25.032Z,54.31
2018-07-05T10:48:25.021Z,54.60
2018-07-05T10:49:24.998Z,54.99
2018-07-05T10:50:25.054Z,55.77
2018-07-05T10:51:24.951Z,54.34
2018-07-05T10:52:24.985Z,54.07
2018-07-05T10:53:25.091Z,52.52
2018-07-05T10:54:24.957Z,53.20
2018-07-05T10:55:24.939Z,52.62
2018-07-05T10:56:24.961Z,53.97
2018-07-05T10:57:24.880Z,53.39
2018-07-05T10:58:24.900Z,53.30
2018-07-05T10:59:24.821Z,53.30
2018-07-05T11:00:24.855Z,52.35
2018-07-05T11:01:24.741Z,51.60
2018-07-05T11:02:24.806Z,51.11
2018-07-05T11:03:24.721Z,51.21
2018-07-05T11:04:25.739Z,50.73
2018-07-05T11:05:24.660Z,51.18
2018-07-05T11:06:24.739Z,51.38
2018-07-05T11:07:24.635Z,51.60
2018-07-05T11:08:24.709Z,52.55
2018-07-05T11:09:24.595Z,51.87
2018-07-05T11:10:25.614Z,51.87
2018-07-05T11:11:24.576Z,51.67
2018-07-05T11:12:24.577Z,51.38
2018-07-05T11:13:24.509Z,51.57
2018-07-05T11:15:14.636Z,51.18
2018-07-05T11:16:14.464Z,51.48
2018-07-05T11:17:14.379Z,51.67
2018-07-05T11:18:14.379Z,51.77
2018-07-05T11:19:14.331Z,52.23
2018-07-05T11:20:14.376Z,54.20
2018-07-05T11:21:14.291Z,52.64
2018-07-05T11:22:14.286Z,51.50
2018-07-05T11:23:14.257Z,50.73
2018-07-05T11:24:14.312Z,51.50
2018-07-05T11:25:14.208Z,51.21
2018-07-05T11:26:14.209Z,51.31
2018-07-05T11:27:14.175Z,50.80
2018-07-05T11:28:14.161Z,50.80
2018-07-05T11:29:14.129Z,50.51
2018-07-05T11:30:14.149Z,50.80
2018-07-05T11:31:14.096Z,51.38
2018-07-05T11:32:14.195Z,50.34
2018-07-05T11:33:14.058Z,50.02
2018-07-05T11:34:14.065Z,50.31
2018-07-05T11:35:14.015Z,50.51
2018-07-05T11:36:14.075Z,50.89
2018-07-05T11:37:13.968Z,50.38
2018-07-05T11:38:13.985Z,51.26
2018-07-05T11:39:13.924Z,51.26
2018-07-05T11:40:13.998Z,50.19
2018-07-05T11:41:13.899Z,50.31
2018-07-05T11:42:13.900Z,51.01
2018-07-05T11:43:13.849Z,48.88
2018-07-05T11:44:13.921Z,49.95
2018-07-05T11:45:13.807Z,48.30
2018-07-05T11:46:13.831Z,48.49
2018-07-05T11:47:13.762Z,48.68
2018-07-05T11:48:14.772Z,48.88
2018-07-05T11:49:13.730Z,48.68
2018-07-05T11:50:13.756Z,49.66
2018-07-05T11:51:13.702Z,49.68
2018-07-05T11:52:13.779Z,48.44
2018-07-05T11:53:13.637Z,49.41
2018-07-05T11:54:13.676Z,47.78
2018-07-05T11:55:13.598Z,46.23
2018-07-05T11:56:13.583Z,46.51
2018-07-05T11:57:13.562Z,47.10
2018-07-05T11:58:13.601Z,46.51
2018-07-05T11:59:13.521Z,46.01
2018-07-05T12:00:13.509Z,47.17
2018-07-05T12:01:13.485Z,47.15
2018-07-05T12:02:13.557Z,47.08
2018-07-05T12:03:13.435Z,47.05
2018-07-05T12:04:13.531Z,49.10
2018-07-05T12:05:13.403Z,48.71
2018-07-05T12:06:13.449Z,49.19
2018-07-05T12:07:13.375Z,48.03
2018-07-05T12:08:13.357Z,49.02
2018-07-05T12:09:13.318Z,47.47
2018-07-05T12:10:13.378Z,46.78
2018-07-05T12:11:13.281Z,47.37
2018-07-05T12:12:13.289Z,47.54
2018-07-05T12:13:13.291Z,48.41
2018-07-05T12:14:13.298Z,47.74
2018-07-05T12:15:13.195Z,49.22
2018-07-05T12:16:13.208Z,48.22
2018-07-05T12:17:13.160Z,47.83
2018-07-05T12:18:59.411Z,47.76
2018-07-05T12:20:00.429Z,47.56
2018-07-05T12:20:59.332Z,46.61
2018-07-05T12:21:59.809Z,48.56
2018-07-05T12:23:01.008Z,49.54
2018-07-05T12:24:00.433Z,47.59
2018-07-05T12:24:59.583Z,46.98
2018-07-05T12:26:00.489Z,47.86
2018-07-05T12:27:00.602Z,48.05
2018-07-05T12:27:59.251Z,48.25
2018-07-05T12:28:59.205Z,48.71
2018-07-05T12:30:00.207Z,48.90
2018-07-05T12:30:59.150Z,49.07
2018-07-05T12:31:59.175Z,48.97
2018-07-05T12:32:59.087Z,49.27
2018-07-05T12:33:59.095Z,49.58
2018-07-05T12:34:59.051Z,48.32
2018-07-05T12:35:59.049Z,49.19
2018-07-05T12:36:59.011Z,47.83
2018-07-05T12:37:59.021Z,48.54
2018-07-05T12:38:58.977Z,50.12
2018-07-05T12:40:00.053Z,47.20
2018-07-05T12:40:58.929Z,46.91
2018-07-05T12:41:59.957Z,47.00
2018-07-05T12:42:58.882Z,46.23
2018-07-05T12:43:59.975Z,45.74
2018-07-05T12:44:58.845Z,45.35
2018-07-05T12:45:58.828Z,46.20
2018-07-05T12:46:58.828Z,45.91
2018-07-05T12:47:58.873Z,46.20
2018-07-05T12:48:58.778Z,46.50
2018-07-05T12:49:58.779Z,45.72
2018-07-05T12:50:58.747Z,46.57
2018-07-05T12:51:58.812Z,47.64
2018-07-05T12:52:58.686Z,47.54
2018-07-05T12:53:58.708Z,47.81
2018-07-05T12:54:58.657Z,48.58
2018-07-05T12:55:58.630Z,48.57
2018-07-05T12:57:45.984Z,49.44
2018-07-05T12:58:45.888Z,49.66
2018-07-05T13:01:15.847Z,48.78
2018-07-05T13:02:15.893Z,47.74
2018-07-05T13:03:15.779Z,47.25
2018-07-05T13:04:15.924Z,46.96
2018-07-05T13:05:15.730Z,46.98
2018-07-05T13:06:16.803Z,47.49
2018-07-05T13:07:15.696Z,46.25